Terminal Aerodrome Forecast
Issued by NWS

Home | Current Version | Previous Version | Text Only | Print | Product List | Glossary On
Versions: 1 2 3 4 5 6 7 8 9 10 11 12 13 14 15 16 17 18 19 20 21 22
000
FTUS45 KPSR 010500
TAFSDL
TAF
KSDL 010520Z 0106/0206 00000KT P6SM SKC
     FM011700 15005KT P6SM SKC
     FM012100 VRB04KT P6SM SKC
      TEMPO 0122/0202 24005KT=

USA.gov is the U.S. government's official web portal to all federal, state and local government web resources and services.